Strona główna
METAR-TAF:

METAR-TAF

Lotnisko :

Port lotniczy Reus

Reus, Hiszpania

Szerokość geograficzna: 41-09N, Długość geograficzna: 001-10E, wysokość: 71 m

Aktualna obserwacja pogody

Raport powstał 25 minut temu, godzina 02:30 UTC
Wiatr 2 kt od północno-północny wschód
Temperatura 17°C
Wilgotność 100%
Ciśnienie 1015 hPa
Widzialność 10 km lub więcej
Brak chmur poniżej 1500 m i brak chmur cumulonimbus

METAR: LERS 180230Z AUTO 02002KT CAVOK 17/17 Q1015

czas: 04:55 (02:55 UTC)

Prognoza

Raport powstał 55 minut temu, godzina 02:00 UTC
Prognoza ważna od 18 godzina 03 UTC do 19 godzina 03 UTC
Wiatr 3 kt z kierunków zmiennych
Widzialność 10 km lub więcej
Mało chmury na wysokości 3000 ft
Stopniowe zmiany
od 18 godzina 08 UTC do 18 godzina 10 UTC
Wiatr 10 kt od południe
Stopniowe zmiany
od 18 godzina 21 UTC do 18 godzina 23 UTC
Wiatr 3 kt z kierunków zmiennych

TAF: LERS 180200Z 1803/1903 VRB03KT 9999 FEW030 TX26/1812Z TN16/1805Z BECMG 1808/1810 18010KT BECMG 1821/1823 VRB03KT

Obserwacja i prognoza pogody dla ponad 4000 lotnisk (raport METAR i TAF).

Dostępne stacje oznaczono żółtymi i czerwonymi punktami na mapie.

Najedź kursorem aby zobaczyć nazwę stacji.

Kliknij aby zobaczyć obserwacje i prognozy pogody.

Aby zmienić mapę: kliknij na zielony przycisk z czarnym krzyżykiem, aby powiększyć; na zielony przycisk z myślnikiem, aby pomniejszyć; na zielone strzałki, aby przejść do map sąsiednich.


METAR-TAF: